Aviation Digital Data Service (ADDS)

Output produced by METARs form (0828 UTC 24 October 2014)
found at http://aviationweather.gov/adds/metars/
 
KPBG 240523Z 2406/2506 35010KT 3SM -DZ BR OVC008 
     FM241400 35007KT P6SM OVC015 
     FM241900 35006KT P6SM BKN025 
     FM242100 VRB03KT P6SM BKN040 
     FM250500 30005KT P6SM SCT100